createdAt,value
2023-04-02T00:01:01.042Z,3.93
2023-04-02T00:03:59.655Z,3.20
2023-04-02T00:06:30.521Z,3.70
2023-04-02T00:09:16.282Z,3.27
2023-04-02T00:11:45.901Z,3.50
2023-04-02T00:14:28.813Z,5.30
2023-04-02T00:16:58.030Z,3.30
2023-04-02T00:19:35.121Z,3.13
2023-04-02T00:22:03.571Z,3.17
2023-04-02T00:24:30.194Z,3.27
2023-04-02T00:26:57.366Z,3.17
2023-04-02T00:29:24.114Z,2.50
2023-04-02T00:31:53.045Z,2.63
2023-04-02T00:34:39.184Z,3.23
2023-04-02T00:37:06.183Z,2.97
2023-04-02T00:39:41.863Z,3.60
2023-04-02T00:42:12.670Z,2.93
2023-04-02T00:44:45.356Z,3.63
2023-04-02T00:47:24.935Z,2.97
2023-04-02T00:50:01.339Z,4.63
2023-04-02T00:52:31.345Z,3.57
2023-04-02T00:55:14.335Z,4.10
2023-04-02T00:57:45.307Z,3.30
2023-04-02T01:00:23.201Z,3.30
2023-04-02T01:03:18.111Z,3.33
2023-04-02T01:05:51.828Z,3.40
2023-04-02T01:08:31.940Z,4.07
2023-04-02T01:11:26.187Z,3.00
2023-04-02T01:14:07.926Z,3.53
2023-04-02T01:16:47.778Z,4.00
2023-04-02T01:19:23.236Z,5.03
2023-04-02T01:21:57.933Z,3.23
2023-04-02T01:24:31.619Z,2.50
2023-04-02T01:26:59.887Z,3.37
2023-04-02T01:29:40.243Z,3.63
2023-04-02T01:32:14.661Z,2.30
2023-04-02T01:34:44.803Z,3.20
2023-04-02T01:37:14.455Z,2.70
2023-04-02T01:40:05.678Z,2.57
2023-04-02T01:42:41.983Z,2.67
2023-04-02T01:45:12.881Z,3.20
2023-04-02T01:47:40.866Z,3.07
2023-04-02T01:50:10.481Z,3.10
2023-04-02T01:52:42.207Z,4.13
2023-04-02T01:55:13.247Z,3.80
2023-04-02T01:57:47.632Z,3.23
2023-04-02T02:00:17.079Z,3.40
2023-04-02T02:02:48.508Z,3.50
2023-04-02T02:05:23.268Z,2.70
2023-04-02T02:07:53.538Z,2.60
2023-04-02T02:10:33.531Z,3.87
2023-04-02T02:13:00.697Z,2.60
2023-04-02T02:15:28.115Z,2.70
2023-04-02T02:18:01.184Z,2.53
2023-04-02T02:20:28.677Z,2.20
2023-04-02T02:22:56.844Z,2.40
2023-04-02T02:25:28.103Z,2.20
2023-04-02T02:28:17.033Z,2.17
2023-04-02T02:30:47.761Z,4.97
2023-04-02T02:33:29.009Z,2.17
2023-04-02T02:36:19.468Z,2.13
2023-04-02T02:39:05.263Z,2.30
2023-04-02T02:41:43.037Z,2.63
2023-04-02T02:44:09.606Z,3.20
2023-04-02T02:46:43.696Z,3.03
2023-04-02T02:49:16.866Z,3.20
2023-04-02T02:52:03.851Z,3.30
2023-04-02T02:54:32.745Z,2.60
2023-04-02T02:57:07.163Z,3.40
2023-04-02T02:59:34.385Z,2.57
2023-04-02T03:02:05.453Z,2.80
2023-04-02T03:04:35.821Z,2.47
2023-04-02T03:07:09.665Z,3.00
2023-04-02T03:09:53.856Z,2.53
2023-04-02T03:12:42.671Z,2.60
2023-04-02T03:15:31.059Z,2.93
2023-04-02T03:18:07.481Z,2.37
2023-04-02T03:20:45.749Z,2.20
2023-04-02T03:23:33.175Z,2.60
2023-04-02T03:26:11.249Z,2.83
2023-04-02T03:28:46.716Z,3.00
2023-04-02T03:31:38.287Z,2.60
2023-04-02T03:34:25.695Z,2.30
2023-04-02T03:37:15.603Z,2.83
2023-04-02T03:39:51.119Z,4.63
2023-04-02T03:42:27.773Z,2.87
2023-04-02T03:45:03.050Z,2.30
2023-04-02T03:47:40.775Z,3.00
2023-04-02T03:50:16.343Z,3.77
2023-04-02T03:52:45.777Z,2.20
2023-04-02T03:55:17.615Z,2.40
2023-04-02T03:58:00.057Z,3.53
2023-04-02T04:00:42.519Z,4.23
2023-04-02T04:03:17.110Z,2.83
2023-04-02T04:06:08.118Z,2.30
2023-04-02T04:08:45.515Z,2.50
2023-04-02T04:11:17.943Z,3.07
2023-04-02T04:13:57.836Z,5.70
2023-04-02T04:16:32.633Z,3.10
2023-04-02T04:19:15.868Z,2.60
2023-04-02T04:21:45.160Z,4.63
2023-04-02T04:24:22.838Z,3.57
2023-04-02T04:26:58.547Z,4.33
2023-04-02T04:29:45.854Z,4.07
2023-04-02T04:32:35.372Z,5.20
2023-04-02T04:35:12.836Z,4.63
2023-04-02T04:37:43.815Z,6.30
2023-04-02T04:40:22.811Z,5.67
2023-04-02T04:42:53.406Z,5.33
2023-04-02T04:45:23.183Z,5.50
2023-04-02T04:48:00.175Z,6.07
2023-04-02T04:50:39.076Z,5.80
2023-04-02T04:53:08.796Z,7.00
2023-04-02T04:55:43.017Z,4.90
2023-04-02T04:58:28.164Z,4.53
2023-04-02T05:01:07.453Z,6.37
2023-04-02T05:03:40.277Z,7.97
2023-04-02T05:06:41.909Z,6.83
2023-04-02T05:09:22.755Z,7.43
2023-04-02T05:12:03.716Z,8.13
2023-04-02T05:14:46.910Z,6.83
2023-04-02T05:17:27.831Z,9.63
2023-04-02T05:20:09.984Z,7.87
2023-04-02T05:22:50.246Z,6.00
2023-04-02T05:25:22.818Z,7.03
2023-04-02T05:28:16.012Z,7.03
2023-04-02T05:30:52.966Z,5.47
2023-04-02T05:33:22.753Z,6.00
2023-04-02T05:35:56.169Z,6.43
2023-04-02T05:38:26.890Z,7.10
2023-04-02T05:41:30.589Z,6.90
2023-04-02T05:44:39.257Z,5.70
2023-04-02T05:47:14.016Z,7.63
2023-04-02T05:49:47.760Z,7.87
2023-04-02T05:52:20.051Z,8.00
2023-04-02T05:54:52.286Z,6.90
2023-04-02T05:57:39.450Z,8.37
2023-04-02T06:00:17.745Z,6.33
2023-04-02T06:03:07.628Z,13.07
2023-04-02T06:05:39.649Z,8.33
2023-04-02T06:08:11.891Z,10.27
2023-04-02T06:10:50.035Z,9.00
2023-04-02T06:13:19.381Z,8.70
2023-04-02T06:15:47.781Z,7.97
2023-04-02T06:18:23.754Z,6.80
2023-04-02T06:20:51.177Z,8.67
2023-04-02T06:23:31.255Z,6.40
2023-04-02T06:26:23.837Z,5.73
2023-04-02T06:29:08.547Z,7.93
2023-04-02T06:31:58.917Z,7.93
2023-04-02T06:34:27.956Z,7.23
2023-04-02T06:37:27.898Z,5.30
2023-04-02T06:39:55.383Z,6.03
2023-04-02T06:42:27.225Z,7.20
2023-04-02T06:44:54.417Z,6.07
2023-04-02T06:47:42.754Z,6.83
2023-04-02T06:50:29.000Z,7.60
2023-04-02T06:52:59.925Z,7.07
2023-04-02T06:55:47.819Z,7.67
2023-04-02T06:58:16.579Z,5.70
2023-04-02T07:00:48.957Z,8.27
2023-04-02T07:03:17.763Z,4.47
2023-04-02T07:05:44.355Z,6.60
2023-04-02T07:08:11.372Z,7.67
2023-04-02T07:10:38.030Z,7.57
2023-04-02T07:13:05.908Z,4.77
2023-04-02T07:15:32.811Z,6.13
2023-04-02T07:18:00.437Z,7.20
2023-04-02T07:20:30.949Z,6.03
2023-04-02T07:23:00.079Z,7.87
2023-04-02T07:25:27.060Z,6.17
2023-04-02T07:27:54.359Z,7.13
2023-04-02T07:30:21.031Z,5.27
2023-04-02T07:32:48.143Z,7.90
2023-04-02T07:35:14.832Z,7.93
2023-04-02T07:37:41.492Z,9.00
2023-04-02T07:40:17.269Z,7.70
2023-04-02T07:42:44.279Z,10.30
2023-04-02T07:45:11.267Z,6.10
2023-04-02T07:47:38.914Z,13.77
2023-04-02T07:50:06.777Z,9.90
2023-04-02T07:52:33.435Z,6.27
2023-04-02T07:55:00.012Z,5.77
2023-04-02T07:57:26.648Z,7.60
2023-04-02T07:59:56.753Z,9.37
2023-04-02T08:02:23.570Z,8.57
2023-04-02T08:04:51.888Z,5.37
2023-04-02T08:07:22.165Z,8.37
2023-04-02T08:09:48.756Z,7.10
2023-04-02T08:12:15.741Z,6.77
2023-04-02T08:14:42.716Z,7.73
2023-04-02T08:17:09.404Z,8.43
2023-04-02T08:19:47.829Z,8.10
2023-04-02T08:22:18.997Z,5.67
2023-04-02T08:24:45.579Z,6.63
2023-04-02T08:27:15.268Z,6.10
2023-04-02T08:29:44.810Z,6.47
2023-04-02T08:32:15.897Z,5.80
2023-04-02T08:34:43.774Z,8.27
2023-04-02T08:37:13.055Z,5.20
2023-04-02T08:39:40.271Z,5.60
2023-04-02T08:42:23.502Z,7.30
2023-04-02T08:45:25.392Z,6.40
2023-04-02T08:47:56.649Z,6.97
2023-04-02T08:50:35.947Z,5.50
2023-04-02T08:53:07.169Z,4.70
2023-04-02T08:55:43.151Z,6.43
2023-04-02T08:58:15.592Z,8.30
2023-04-02T09:00:45.742Z,7.43
2023-04-02T09:03:21.826Z,6.47
2023-04-02T09:05:51.312Z,4.77
2023-04-02T09:08:27.316Z,8.20
2023-04-02T09:11:37.684Z,6.63
2023-04-02T09:14:13.635Z,6.70
2023-04-02T09:16:51.199Z,6.17
2023-04-02T09:19:34.646Z,4.00
2023-04-02T09:22:27.209Z,8.23
2023-04-02T09:24:55.696Z,6.33
2023-04-02T09:27:25.059Z,5.57
2023-04-02T09:29:55.221Z,6.20
2023-04-02T09:32:40.690Z,7.73
2023-04-02T09:35:26.261Z,5.37
2023-04-02T09:38:20.046Z,5.40
2023-04-02T09:41:01.749Z,3.93
2023-04-02T09:43:36.402Z,4.90
2023-04-02T09:46:07.104Z,7.13
2023-04-02T09:48:39.308Z,5.97
2023-04-02T09:51:21.865Z,5.23
2023-04-02T09:54:06.120Z,4.37
2023-04-02T09:56:37.467Z,5.47
2023-04-02T09:59:15.772Z,4.40
2023-04-02T10:01:56.012Z,6.57
2023-04-02T10:04:48.630Z,3.53
2023-04-02T10:07:38.999Z,5.07
2023-04-02T10:10:44.686Z,6.27
2023-04-02T10:13:29.776Z,5.27
2023-04-02T10:16:19.592Z,4.17
2023-04-02T10:19:01.117Z,4.43
2023-04-02T10:21:38.726Z,6.40
2023-04-02T10:24:13.480Z,6.83
2023-04-02T10:26:52.215Z,5.37
2023-04-02T10:29:44.684Z,3.73
2023-04-02T10:32:31.778Z,6.63
2023-04-02T10:35:07.512Z,5.43
2023-04-02T10:37:47.147Z,5.47
2023-04-02T10:40:35.276Z,5.50
2023-04-02T10:43:39.620Z,6.77
2023-04-02T10:46:11.022Z,4.17
2023-04-02T10:49:08.052Z,5.80
2023-04-02T10:51:45.483Z,6.30
2023-04-02T10:54:31.026Z,5.97
2023-04-02T10:57:06.588Z,4.70
2023-04-02T10:59:37.399Z,6.50
2023-04-02T11:02:24.988Z,4.90
2023-04-02T11:04:57.126Z,7.00
2023-04-02T11:07:31.153Z,7.10
2023-04-02T11:09:59.948Z,6.60
2023-04-02T11:12:43.536Z,5.57
2023-04-02T11:15:18.229Z,7.00
2023-04-02T11:17:46.034Z,4.73
2023-04-02T11:20:56.427Z,6.60
2023-04-02T11:23:28.255Z,6.53
2023-04-02T11:26:29.652Z,7.33
2023-04-02T11:29:15.223Z,5.57
2023-04-02T11:31:43.192Z,5.57
2023-04-02T11:34:41.477Z,4.10
2023-04-02T11:37:11.194Z,5.77
2023-04-02T11:39:53.805Z,5.67
2023-04-02T11:42:35.321Z,4.33
2023-04-02T11:45:21.896Z,3.93
2023-04-02T11:48:17.696Z,3.77
2023-04-02T11:50:47.331Z,4.70
2023-04-02T11:53:17.372Z,2.93
2023-04-02T11:55:46.615Z,5.07
2023-04-02T11:58:13.522Z,5.67
2023-04-02T12:01:18.557Z,4.57
2023-04-02T12:03:48.222Z,4.00
2023-04-02T12:06:39.998Z,3.23
2023-04-02T12:09:28.325Z,2.87
2023-04-02T12:11:58.457Z,3.60
2023-04-02T12:14:47.908Z,4.77
2023-04-02T12:17:38.932Z,3.87
2023-04-02T12:20:09.819Z,3.97
2023-04-02T12:22:53.942Z,4.07
2023-04-02T12:25:27.183Z,4.53
2023-04-02T12:28:18.174Z,5.30
2023-04-02T12:30:46.391Z,3.53
2023-04-02T12:33:22.287Z,4.70
2023-04-02T12:35:51.343Z,5.20
2023-04-02T12:38:24.780Z,3.13
2023-04-02T12:41:04.547Z,4.43
2023-04-02T12:43:33.770Z,4.27
2023-04-02T12:46:09.532Z,3.73
2023-04-02T12:48:36.589Z,3.50
2023-04-02T12:51:04.339Z,5.30
2023-04-02T12:53:40.298Z,3.33
2023-04-02T12:56:08.638Z,3.20
2023-04-02T12:58:38.365Z,4.17
2023-04-02T13:01:18.758Z,5.17
2023-04-02T13:04:06.381Z,3.00
2023-04-02T13:06:34.663Z,4.97
2023-04-02T13:09:04.151Z,3.10
2023-04-02T13:11:35.531Z,4.23
2023-04-02T13:14:04.624Z,3.63
2023-04-02T13:16:38.199Z,3.63
2023-04-02T13:19:19.294Z,3.33
2023-04-02T13:21:46.188Z,3.13
2023-04-02T13:24:20.770Z,3.83
2023-04-02T13:26:49.826Z,4.03
2023-04-02T13:29:29.952Z,2.77
2023-04-02T13:32:02.438Z,2.77
2023-04-02T13:34:29.152Z,4.30
2023-04-02T13:36:57.395Z,2.53
2023-04-02T13:39:24.409Z,3.43
2023-04-02T13:41:58.116Z,2.23
2023-04-02T13:44:30.874Z,4.03
2023-04-02T13:46:58.428Z,2.97
2023-04-02T13:49:26.578Z,3.10
2023-04-02T13:51:58.998Z,3.17
2023-04-02T13:54:48.940Z,2.43
2023-04-02T13:57:15.847Z,5.07
2023-04-02T13:59:42.794Z,5.33
2023-04-02T14:02:17.474Z,5.60
2023-04-02T14:04:51.670Z,3.57
2023-04-02T14:07:18.307Z,5.23
2023-04-02T14:10:01.216Z,6.37
2023-04-02T14:12:54.068Z,4.40
2023-04-02T14:15:46.635Z,4.97
2023-04-02T14:19:00.937Z,4.23
2023-04-02T14:21:54.856Z,3.27
2023-04-02T14:24:49.450Z,3.83
2023-04-02T14:27:45.665Z,4.13
2023-04-02T14:30:47.263Z,9.23
2023-04-02T14:33:29.688Z,3.63
2023-04-02T14:36:19.458Z,2.60
2023-04-02T14:39:16.511Z,5.70
2023-04-02T14:41:52.678Z,4.20
2023-04-02T14:44:26.607Z,3.57
2023-04-02T14:47:13.394Z,5.63
2023-04-02T14:49:43.290Z,2.77
2023-04-02T14:52:22.168Z,3.63
2023-04-02T14:55:02.433Z,2.93
2023-04-02T14:57:49.034Z,3.53
2023-04-02T15:00:42.133Z,4.27
2023-04-02T15:03:58.852Z,3.83
2023-04-02T15:06:33.289Z,5.50
2023-04-02T15:09:09.712Z,4.80
2023-04-02T15:11:41.276Z,4.10
2023-04-02T15:14:20.266Z,4.57
2023-04-02T15:16:47.422Z,4.43
2023-04-02T15:19:18.048Z,5.10
2023-04-02T15:21:57.606Z,3.83
2023-04-02T15:24:45.985Z,4.33
2023-04-02T15:27:27.179Z,4.70
2023-04-02T15:29:59.922Z,3.10
2023-04-02T15:32:34.710Z,3.13
2023-04-02T15:35:38.806Z,4.87
2023-04-02T15:38:12.635Z,5.53
2023-04-02T15:40:48.437Z,3.03
2023-04-02T15:43:40.341Z,4.00
2023-04-02T15:46:16.242Z,3.50
2023-04-02T15:48:57.972Z,1.73
2023-04-02T15:51:27.529Z,6.30
2023-04-02T15:54:04.733Z,5.77
2023-04-02T15:56:52.694Z,4.37
2023-04-02T15:59:38.199Z,4.30
2023-04-02T16:02:23.550Z,5.53
2023-04-02T16:05:02.311Z,3.80
2023-04-02T16:07:49.545Z,4.60
2023-04-02T16:10:41.861Z,3.93
2023-04-02T16:13:34.648Z,5.03
2023-04-02T16:16:13.824Z,4.63
2023-04-02T16:18:43.350Z,4.17
2023-04-02T16:21:16.057Z,5.23
2023-04-02T16:23:44.919Z,4.00
2023-04-02T16:26:27.188Z,4.07
2023-04-02T16:29:06.806Z,4.00
2023-04-02T16:31:43.919Z,4.20
2023-04-02T16:34:13.341Z,6.80
2023-04-02T16:36:58.756Z,5.87
2023-04-02T16:39:29.422Z,3.03
2023-04-02T16:42:24.437Z,4.13
2023-04-02T16:44:56.869Z,5.23
2023-04-02T16:47:37.518Z,4.70
2023-04-02T16:50:10.117Z,4.50
2023-04-02T16:52:45.978Z,4.40
2023-04-02T16:55:32.151Z,4.27
2023-04-02T16:58:04.542Z,3.70
2023-04-02T17:00:45.700Z,6.07
2023-04-02T17:03:12.312Z,4.70
2023-04-02T17:06:16.579Z,2.17
2023-04-02T17:08:54.494Z,3.67
2023-04-02T17:11:25.033Z,4.13
2023-04-02T17:14:06.391Z,5.07
2023-04-02T17:16:45.947Z,4.90
2023-04-02T17:19:16.873Z,2.53
2023-04-02T17:21:47.373Z,4.23
2023-04-02T17:24:14.502Z,4.50
2023-04-02T17:26:43.734Z,3.07
2023-04-02T17:29:18.984Z,3.33
2023-04-02T17:31:46.604Z,6.13
2023-04-02T17:34:18.166Z,4.83
2023-04-02T17:37:02.366Z,3.87
2023-04-02T17:39:40.722Z,4.43
2023-04-02T17:42:42.689Z,2.67
2023-04-02T17:45:34.040Z,4.37
2023-04-02T17:48:19.490Z,3.10
2023-04-02T17:51:15.622Z,6.40
2023-04-02T17:54:16.147Z,3.17
2023-04-02T17:57:08.097Z,4.13
2023-04-02T17:59:55.621Z,2.83
2023-04-02T18:02:36.678Z,6.90
2023-04-02T18:05:13.407Z,2.77
2023-04-02T18:07:55.921Z,2.50
2023-04-02T18:10:41.458Z,5.00
2023-04-02T18:13:33.179Z,5.07
2023-04-02T18:16:09.916Z,5.20
2023-04-02T18:18:50.011Z,11.20
2023-04-02T18:21:33.215Z,3.03
2023-04-02T18:24:34.557Z,4.60
2023-04-02T18:27:13.175Z,3.23
2023-04-02T18:30:11.550Z,3.93
2023-04-02T18:33:02.519Z,2.57
2023-04-02T18:35:59.974Z,4.40
2023-04-02T18:39:00.516Z,3.57
2023-04-02T18:41:33.554Z,5.33
2023-04-02T18:44:18.295Z,3.57
2023-04-02T18:46:52.425Z,3.13
2023-04-02T18:49:25.255Z,3.57
2023-04-02T18:51:57.462Z,5.30
2023-04-02T18:54:38.182Z,3.10
2023-04-02T18:57:19.787Z,5.50
2023-04-02T19:00:18.787Z,4.83
2023-04-02T19:02:54.756Z,2.63
2023-04-02T19:05:29.737Z,5.07
2023-04-02T19:08:18.219Z,3.47
2023-04-02T19:10:47.706Z,4.63
2023-04-02T19:13:16.464Z,4.30
2023-04-02T19:16:07.433Z,4.17
2023-04-02T19:18:43.378Z,5.27
2023-04-02T19:21:22.338Z,4.77
2023-04-02T19:24:13.718Z,3.37
2023-04-02T19:26:56.793Z,3.07
2023-04-02T19:29:52.718Z,4.30
2023-04-02T19:32:36.380Z,4.43
2023-04-02T19:35:31.141Z,4.37
2023-04-02T19:38:39.307Z,2.87
2023-04-02T19:41:12.041Z,3.80
2023-04-02T19:43:38.761Z,3.43
2023-04-02T19:46:05.414Z,4.47
2023-04-02T19:48:51.347Z,3.63
2023-04-02T19:51:21.426Z,4.63
2023-04-02T19:53:47.987Z,6.13
2023-04-02T19:56:15.002Z,5.33
2023-04-02T19:58:42.063Z,7.77
2023-04-02T20:01:08.713Z,5.00
2023-04-02T20:03:35.670Z,6.70
2023-04-02T20:06:09.414Z,6.43
2023-04-02T20:08:36.528Z,4.33
2023-04-02T20:11:03.462Z,5.27
2023-04-02T20:13:30.466Z,5.57
2023-04-02T20:16:02.015Z,4.60
2023-04-02T20:18:29.706Z,7.63
2023-04-02T20:20:56.503Z,3.87
2023-04-02T20:23:23.420Z,5.93
2023-04-02T20:25:56.456Z,5.10
2023-04-02T20:28:25.292Z,6.03
2023-04-02T20:30:52.534Z,5.63
2023-04-02T20:33:21.465Z,5.17
2023-04-02T20:35:49.891Z,7.83
2023-04-02T20:38:17.357Z,4.97
2023-04-02T20:40:45.174Z,5.87
2023-04-02T20:43:12.750Z,5.33
2023-04-02T20:45:40.118Z,5.07
2023-04-02T20:48:07.042Z,7.27
2023-04-02T20:50:34.582Z,4.30
2023-04-02T20:53:01.885Z,5.10
2023-04-02T20:55:28.475Z,7.77
2023-04-02T20:57:55.287Z,4.07
2023-04-02T21:00:22.702Z,5.63
2023-04-02T21:02:49.511Z,5.07
2023-04-02T21:05:16.689Z,6.97
2023-04-02T21:07:43.355Z,5.20
2023-04-02T21:10:10.531Z,6.77
2023-04-02T21:12:43.796Z,5.27
2023-04-02T21:15:19.841Z,6.27
2023-04-02T21:18:06.166Z,8.57
2023-04-02T21:20:33.250Z,7.93
2023-04-02T21:23:02.814Z,5.80
2023-04-02T21:25:39.638Z,6.53
2023-04-02T21:28:06.785Z,5.37
2023-04-02T21:30:33.508Z,6.43
2023-04-02T21:33:00.549Z,5.40
2023-04-02T21:35:27.405Z,6.63
2023-04-02T21:37:54.464Z,7.70
2023-04-02T21:40:21.420Z,8.53
2023-04-02T21:42:49.583Z,5.67
2023-04-02T21:45:19.593Z,6.07
2023-04-02T21:47:46.274Z,6.03
2023-04-02T21:50:13.261Z,5.07
2023-04-02T21:52:40.014Z,9.00
2023-04-02T21:55:07.341Z,4.80
2023-04-02T21:57:34.343Z,6.00
2023-04-02T22:00:11.324Z,5.67
2023-04-02T22:02:51.852Z,7.00
2023-04-02T22:05:38.535Z,7.43
2023-04-02T22:08:13.838Z,7.33
2023-04-02T22:10:57.166Z,10.77
2023-04-02T22:13:50.031Z,9.30
2023-04-02T22:16:57.746Z,9.27
2023-04-02T22:22:40.389Z,7.13
2023-04-02T22:25:16.266Z,7.67
2023-04-02T22:28:12.960Z,8.60
2023-04-02T22:31:12.859Z,7.40
2023-04-02T22:37:01.175Z,6.47
2023-04-02T22:39:28.261Z,7.43
2023-04-02T22:44:56.647Z,6.40
2023-04-02T22:48:20.045Z,6.07
2023-04-02T22:58:49.850Z,7.33
2023-04-02T23:02:20.636Z,7.27
2023-04-02T23:04:51.104Z,6.50
2023-04-02T23:07:24.621Z,6.07
2023-04-02T23:09:57.104Z,7.07
2023-04-02T23:12:24.518Z,5.60
2023-04-02T23:14:59.357Z,7.63
2023-04-02T23:17:35.177Z,5.67
2023-04-02T23:20:11.831Z,6.10
2023-04-02T23:22:46.560Z,6.37
2023-04-02T23:25:19.860Z,6.37
2023-04-02T23:27:54.567Z,8.10
2023-04-02T23:30:25.008Z,7.33
2023-04-02T23:32:55.893Z,6.30
2023-04-02T23:35:25.951Z,6.37
2023-04-02T23:37:55.598Z,7.43
2023-04-02T23:40:28.741Z,6.30
2023-04-02T23:42:57.470Z,6.40
2023-04-02T23:45:31.019Z,6.70
2023-04-02T23:48:03.696Z,6.27
2023-04-02T23:50:36.169Z,8.00
2023-04-02T23:53:09.084Z,5.03
2023-04-02T23:55:41.795Z,7.70
2023-04-02T23:58:20.028Z,5.37
